Alberton, MT

7:38 AM MST on December 22, 2014 (GMT -0700)
Downtown Alberton | Change Station
CLOSE
Current Station
Personal Weather Station
Location: Alberton, MT
Elevation: 3048 ft
Nearby Weather Stations

Elev 3048 ft 47.00 °N, 114.48 °W | Updated 4 minutes ago

Overcast
Overcast
33.2 °F
Feels Like 33 °F
N
0.0
Wind Variable Wind from South
Gusts 1.0 mph

Today
High -- | Low -- °F
--% Chance of Precip.
Yesterday
High -- | Low -- °F
Precip. -- in
8:21 AM 4:52 PM
New Moon, 0% visible
Pressure 30.03 in
Visibility 10.0 miles
Clouds Few 4800 ft
Mostly Cloudy 6000 ft
Overcast 7000 ft
Windchill 33 °F
Dew Point 32 °F
Humidity 94%
Rainfall 0.00 in
Snow Depth Not available.
UV 0 out of 12
Pollen .10 out of 12
Air Quality Not available.
Flu Activity Not available.
METAR KMSO 221353Z 27005KT 10SM FEW048 BKN060 OVC070 01/M01 A2996 RMK AO2 UPB21E49 SLP167 P0000 T00061011

More Conditions Fewer Conditions

Pressure 30.03 in
Visibility 10.0 miles
Clouds Few 4800 ft
Mostly Cloudy 6000 ft
Overcast 7000 ft
Windchill 33 °F
Dew Point 32 °F
Humidity 94%
Rainfall 0.00 in
Snow Depth Not available.
UV 0 out of 12
Pollen .10 out of 12
Air Quality Not available.
Flu Activity Not available.
METAR KMSO 221353Z 27005KT 10SM FEW048 BKN060 OVC070 01/M01 A2996 RMK AO2 UPB21E49 SLP167 P0000 T00061011

More Conditions Fewer Conditions

10-Day Weather Forecast

Almanac

Astronomy

Dec. 22, 2014 Rise Set
Actual Time
Civil Twilight
Nautical Twilight
Astronomical Twilight
Moon
Length of Visible Light
Length of Day
Tomorrow will be .
, % of the Moon is Illuminated

Today's Extremes

State Highs State Lows

Community

WunderPhotos

Upload Photos

1,779,608 photos uploaded!

WunderBlogs® & News

Nearby

Air Quality

  Air Quality AQ Index Pollutant
Not available.

Snow Depth

Station Depth Elevation

Earthquake Activity

City Distance Mag. Time & Date
Minimum magnitude displayed is 2.5.

Coastal Water Temperatures

Place Temperature

Nearby Weather Stations